sensor_id;sensor_type;location;lat;lon;timestamp;temperature;humidity
75442;DHT22;64019;48.312;14.226;2023-03-20T00:00:40;8.80;99.90
75442;DHT22;64019;48.312;14.226;2023-03-20T00:03:11;8.80;99.90
75442;DHT22;64019;48.312;14.226;2023-03-20T00:05:37;8.80;99.90
75442;DHT22;64019;48.312;14.226;2023-03-20T00:08:02;8.90;99.90
75442;DHT22;64019;48.312;14.226;2023-03-20T00:10:35;8.80;99.90
75442;DHT22;64019;48.312;14.226;2023-03-20T00:13:02;8.80;99.90
75442;DHT22;64019;48.312;14.226;2023-03-20T00:15:31;8.80;99.90
75442;DHT22;64019;48.312;14.226;2023-03-20T00:17:58;8.80;99.90
75442;DHT22;64019;48.312;14.226;2023-03-20T00:20:24;8.80;99.90
75442;DHT22;64019;48.312;14.226;2023-03-20T00:22:50;8.80;99.90
75442;DHT22;64019;48.312;14.226;2023-03-20T00:25:18;8.80;99.90
75442;DHT22;64019;48.312;14.226;2023-03-20T00:27:44;8.80;99.90
75442;DHT22;64019;48.312;14.226;2023-03-20T00:32:46;8.80;99.90
75442;DHT22;64019;48.312;14.226;2023-03-20T00:37:46;8.80;99.90
75442;DHT22;64019;48.312;14.226;2023-03-20T00:40:12;8.80;99.90
75442;DHT22;64019;48.312;14.226;2023-03-20T00:42:38;8.80;99.90
75442;DHT22;64019;48.312;14.226;2023-03-20T00:45:04;8.80;99.90
75442;DHT22;64019;48.312;14.226;2023-03-20T00:47:33;8.80;99.90
75442;DHT22;64019;48.312;14.226;2023-03-20T00:50:05;8.80;99.90
75442;DHT22;64019;48.312;14.226;2023-03-20T00:52:31;8.80;99.90
75442;DHT22;64019;48.312;14.226;2023-03-20T00:54:57;8.70;99.90
75442;DHT22;64019;48.312;14.226;2023-03-20T00:57:29;8.80;99.90
75442;DHT22;64019;48.312;14.226;2023-03-20T01:00:18;8.70;99.90
75442;DHT22;64019;48.312;14.226;2023-03-20T01:02:45;8.70;99.90
75442;DHT22;64019;48.312;14.226;2023-03-20T01:05:11;8.60;99.90
75442;DHT22;64019;48.312;14.226;2023-03-20T01:07:37;8.50;99.90
75442;DHT22;64019;48.312;14.226;2023-03-20T01:10:04;8.50;99.90
75442;DHT22;64019;48.312;14.226;2023-03-20T01:12:30;8.50;99.90
75442;DHT22;64019;48.312;14.226;2023-03-20T01:14:56;8.60;99.90
75442;DHT22;64019;48.312;14.226;2023-03-20T01:17:24;8.50;99.90
75442;DHT22;64019;48.312;14.226;2023-03-20T01:19:50;8.50;99.90
75442;DHT22;64019;48.312;14.226;2023-03-20T01:22:15;8.60;99.90
75442;DHT22;64019;48.312;14.226;2023-03-20T01:24:45;8.50;99.90
75442;DHT22;64019;48.312;14.226;2023-03-20T01:27:16;8.50;99.90
75442;DHT22;64019;48.312;14.226;2023-03-20T01:29:43;8.50;99.90
75442;DHT22;64019;48.312;14.226;2023-03-20T01:32:14;8.60;99.90
75442;DHT22;64019;48.312;14.226;2023-03-20T01:34:40;8.60;99.90
75442;DHT22;64019;48.312;14.226;2023-03-20T01:37:11;8.60;99.90
75442;DHT22;64019;48.312;14.226;2023-03-20T01:39:38;8.60;99.90
75442;DHT22;64019;48.312;14.226;2023-03-20T01:42:05;8.60;99.90
75442;DHT22;64019;48.312;14.226;2023-03-20T01:44:33;8.60;99.90
75442;DHT22;64019;48.312;14.226;2023-03-20T01:47:01;8.60;99.90
75442;DHT22;64019;48.312;14.226;2023-03-20T01:51:53;8.60;99.90
75442;DHT22;64019;48.312;14.226;2023-03-20T01:54:26;8.60;99.90
75442;DHT22;64019;48.312;14.226;2023-03-20T01:57:15;8.60;99.90
75442;DHT22;64019;48.312;14.226;2023-03-20T01:59:55;8.60;99.90
75442;DHT22;64019;48.312;14.226;2023-03-20T02:02:25;8.60;99.90
75442;DHT22;64019;48.312;14.226;2023-03-20T02:04:57;8.70;99.90
75442;DHT22;64019;48.312;14.226;2023-03-20T02:07:24;8.70;99.90
75442;DHT22;64019;48.312;14.226;2023-03-20T02:09:50;8.70;99.90
75442;DHT22;64019;48.312;14.226;2023-03-20T02:12:17;8.70;99.90
75442;DHT22;64019;48.312;14.226;2023-03-20T02:14:45;8.60;99.90
75442;DHT22;64019;48.312;14.226;2023-03-20T02:17:11;8.70;99.90
75442;DHT22;64019;48.312;14.226;2023-03-20T02:19:43;8.60;99.90
75442;DHT22;64019;48.312;14.226;2023-03-20T02:42:38;8.30;99.90
75442;DHT22;64019;48.312;14.226;2023-03-20T02:45:14;8.30;99.90
75442;DHT22;64019;48.312;14.226;2023-03-20T02:51:02;8.20;99.90
75442;DHT22;64019;48.312;14.226;2023-03-20T02:53:53;8.10;99.90
75442;DHT22;64019;48.312;14.226;2023-03-20T03:02:10;7.90;99.90
75442;DHT22;64019;48.312;14.226;2023-03-20T03:04:41;7.90;99.90
75442;DHT22;64019;48.312;14.226;2023-03-20T03:07:10;7.70;99.90
75442;DHT22;64019;48.312;14.226;2023-03-20T03:09:46;7.70;99.90
75442;DHT22;64019;48.312;14.226;2023-03-20T03:12:22;7.70;99.90
75442;DHT22;64019;48.312;14.226;2023-03-20T03:14:52;7.60;99.90
75442;DHT22;64019;48.312;14.226;2023-03-20T03:17:20;7.60;99.90
75442;DHT22;64019;48.312;14.226;2023-03-20T03:19:54;7.60;99.90
75442;DHT22;64019;48.312;14.226;2023-03-20T03:22:22;7.60;99.90
75442;DHT22;64019;48.312;14.226;2023-03-20T03:24:50;7.60;99.90
75442;DHT22;64019;48.312;14.226;2023-03-20T03:27:20;7.60;99.90
75442;DHT22;64019;48.312;14.226;2023-03-20T03:30:01;7.60;99.90
75442;DHT22;64019;48.312;14.226;2023-03-20T03:32:32;7.50;99.90
75442;DHT22;64019;48.312;14.226;2023-03-20T03:34:59;7.50;99.90
75442;DHT22;64019;48.312;14.226;2023-03-20T03:37:28;7.50;99.90
75442;DHT22;64019;48.312;14.226;2023-03-20T03:42:57;7.50;99.90
75442;DHT22;64019;48.312;14.226;2023-03-20T03:45:32;7.40;99.90
75442;DHT22;64019;48.312;14.226;2023-03-20T03:48:18;7.40;99.90
75442;DHT22;64019;48.312;14.226;2023-03-20T03:50:52;7.40;99.90
75442;DHT22;64019;48.312;14.226;2023-03-20T03:53:29;7.20;99.90
75442;DHT22;64019;48.312;14.226;2023-03-20T03:56:00;7.20;99.90
75442;DHT22;64019;48.312;14.226;2023-03-20T03:58:40;7.10;99.90
75442;DHT22;64019;48.312;14.226;2023-03-20T04:01:09;7.10;99.90
75442;DHT22;64019;48.312;14.226;2023-03-20T04:03:39;7.00;99.90
75442;DHT22;64019;48.312;14.226;2023-03-20T04:06:09;7.00;99.90
75442;DHT22;64019;48.312;14.226;2023-03-20T04:08:36;6.90;99.90
75442;DHT22;64019;48.312;14.226;2023-03-20T04:11:01;6.90;99.90
75442;DHT22;64019;48.312;14.226;2023-03-20T04:13:27;6.90;99.90
75442;DHT22;64019;48.312;14.226;2023-03-20T04:15:53;7.00;99.90
75442;DHT22;64019;48.312;14.226;2023-03-20T04:18:19;7.00;99.90
75442;DHT22;64019;48.312;14.226;2023-03-20T04:20:45;7.00;99.90
75442;DHT22;64019;48.312;14.226;2023-03-20T04:23:12;7.00;99.90
75442;DHT22;64019;48.312;14.226;2023-03-20T04:25:38;7.00;99.90
75442;DHT22;64019;48.312;14.226;2023-03-20T04:28:04;7.00;99.90
75442;DHT22;64019;48.312;14.226;2023-03-20T04:30:30;7.00;99.90
75442;DHT22;64019;48.312;14.226;2023-03-20T04:32:56;7.00;99.90
75442;DHT22;64019;48.312;14.226;2023-03-20T04:35:22;7.10;99.90
75442;DHT22;64019;48.312;14.226;2023-03-20T04:37:48;7.10;99.90
75442;DHT22;64019;48.312;14.226;2023-03-20T04:40:14;7.10;99.90
75442;DHT22;64019;48.312;14.226;2023-03-20T04:42:39;7.10;99.90
75442;DHT22;64019;48.312;14.226;2023-03-20T04:45:05;7.10;99.90
75442;DHT22;64019;48.312;14.226;2023-03-20T04:47:31;7.10;99.90
75442;DHT22;64019;48.312;14.226;2023-03-20T04:49:57;7.10;99.90
75442;DHT22;64019;48.312;14.226;2023-03-20T04:52:23;7.10;99.90
75442;DHT22;64019;48.312;14.226;2023-03-20T04:54:49;7.10;99.90
75442;DHT22;64019;48.312;14.226;2023-03-20T04:57:14;7.10;99.90
75442;DHT22;64019;48.312;14.226;2023-03-20T04:59:41;7.10;99.90
75442;DHT22;64019;48.312;14.226;2023-03-20T05:02:07;7.00;99.90
75442;DHT22;64019;48.312;14.226;2023-03-20T05:04:32;7.00;99.90
75442;DHT22;64019;48.312;14.226;2023-03-20T05:06:58;7.00;99.90
75442;DHT22;64019;48.312;14.226;2023-03-20T05:09:23;7.00;99.90
75442;DHT22;64019;48.312;14.226;2023-03-20T05:11:49;7.00;99.90
75442;DHT22;64019;48.312;14.226;2023-03-20T05:14:15;7.00;99.90
75442;DHT22;64019;48.312;14.226;2023-03-20T05:16:40;7.00;99.90
75442;DHT22;64019;48.312;14.226;2023-03-20T05:19:06;7.10;99.90
75442;DHT22;64019;48.312;14.226;2023-03-20T05:21:31;7.10;99.90
75442;DHT22;64019;48.312;14.226;2023-03-20T05:23:57;7.20;99.90
75442;DHT22;64019;48.312;14.226;2023-03-20T05:26:23;7.20;99.90
75442;DHT22;64019;48.312;14.226;2023-03-20T05:28:48;7.20;99.90
75442;DHT22;64019;48.312;14.226;2023-03-20T05:31:14;7.10;99.90
75442;DHT22;64019;48.312;14.226;2023-03-20T05:33:40;7.20;99.90
75442;DHT22;64019;48.312;14.226;2023-03-20T05:36:06;7.20;99.90
75442;DHT22;64019;48.312;14.226;2023-03-20T05:38:32;7.30;99.90
75442;DHT22;64019;48.312;14.226;2023-03-20T05:40:59;7.30;99.90
75442;DHT22;64019;48.312;14.226;2023-03-20T05:43:25;7.30;99.90
75442;DHT22;64019;48.312;14.226;2023-03-20T05:45:51;7.30;99.90
75442;DHT22;64019;48.312;14.226;2023-03-20T05:48:17;7.30;99.90
75442;DHT22;64019;48.312;14.226;2023-03-20T05:50:43;7.40;99.90
75442;DHT22;64019;48.312;14.226;2023-03-20T05:53:08;7.50;99.90
75442;DHT22;64019;48.312;14.226;2023-03-20T05:55:34;7.50;99.90
75442;DHT22;64019;48.312;14.226;2023-03-20T05:58:00;7.50;99.90
75442;DHT22;64019;48.312;14.226;2023-03-20T06:00:25;7.60;99.90
75442;DHT22;64019;48.312;14.226;2023-03-20T06:02:51;7.70;99.90
75442;DHT22;64019;48.312;14.226;2023-03-20T06:05:17;7.70;99.90
75442;DHT22;64019;48.312;14.226;2023-03-20T06:07:43;7.80;99.90
75442;DHT22;64019;48.312;14.226;2023-03-20T06:10:09;7.80;99.90
75442;DHT22;64019;48.312;14.226;2023-03-20T06:12:35;7.80;99.90
75442;DHT22;64019;48.312;14.226;2023-03-20T06:15:01;8.00;99.90
75442;DHT22;64019;48.312;14.226;2023-03-20T06:17:26;8.00;99.90
75442;DHT22;64019;48.312;14.226;2023-03-20T06:19:52;8.10;99.90
75442;DHT22;64019;48.312;14.226;2023-03-20T06:22:18;8.10;99.90
75442;DHT22;64019;48.312;14.226;2023-03-20T06:24:43;8.20;99.90
75442;DHT22;64019;48.312;14.226;2023-03-20T06:27:09;8.30;99.90
75442;DHT22;64019;48.312;14.226;2023-03-20T06:29:34;8.40;99.90
75442;DHT22;64019;48.312;14.226;2023-03-20T06:32:00;8.50;99.90
75442;DHT22;64019;48.312;14.226;2023-03-20T06:34:26;8.50;99.90
75442;DHT22;64019;48.312;14.226;2023-03-20T06:36:52;8.60;99.90
75442;DHT22;64019;48.312;14.226;2023-03-20T06:39:18;8.70;99.90
75442;DHT22;64019;48.312;14.226;2023-03-20T06:41:43;8.80;99.90
75442;DHT22;64019;48.312;14.226;2023-03-20T06:44:09;8.90;99.90
75442;DHT22;64019;48.312;14.226;2023-03-20T06:46:35;9.00;99.90
75442;DHT22;64019;48.312;14.226;2023-03-20T06:49:01;9.00;99.90
75442;DHT22;64019;48.312;14.226;2023-03-20T06:51:26;9.00;99.90
75442;DHT22;64019;48.312;14.226;2023-03-20T06:53:52;9.00;99.90
75442;DHT22;64019;48.312;14.226;2023-03-20T06:56:19;9.10;99.90
75442;DHT22;64019;48.312;14.226;2023-03-20T06:58:44;9.20;99.90
75442;DHT22;64019;48.312;14.226;2023-03-20T07:01:12;9.30;99.90
75442;DHT22;64019;48.312;14.226;2023-03-20T07:03:38;9.50;99.90
75442;DHT22;64019;48.312;14.226;2023-03-20T07:06:05;9.60;99.90
75442;DHT22;64019;48.312;14.226;2023-03-20T07:08:31;9.80;99.90
75442;DHT22;64019;48.312;14.226;2023-03-20T07:10:57;9.80;99.90
75442;DHT22;64019;48.312;14.226;2023-03-20T07:13:23;9.90;99.90
75442;DHT22;64019;48.312;14.226;2023-03-20T07:15:48;10.00;99.90
75442;DHT22;64019;48.312;14.226;2023-03-20T07:18:14;10.00;99.90
75442;DHT22;64019;48.312;14.226;2023-03-20T07:20:40;10.00;99.90
75442;DHT22;64019;48.312;14.226;2023-03-20T07:23:06;10.10;99.90
75442;DHT22;64019;48.312;14.226;2023-03-20T07:25:31;10.10;99.90
75442;DHT22;64019;48.312;14.226;2023-03-20T07:27:57;10.10;99.90
75442;DHT22;64019;48.312;14.226;2023-03-20T07:30:23;10.10;99.90
75442;DHT22;64019;48.312;14.226;2023-03-20T07:32:49;10.10;99.90
75442;DHT22;64019;48.312;14.226;2023-03-20T07:35:15;9.90;99.90
75442;DHT22;64019;48.312;14.226;2023-03-20T07:37:40;9.90;99.90
75442;DHT22;64019;48.312;14.226;2023-03-20T07:40:07;9.80;99.90
75442;DHT22;64019;48.312;14.226;2023-03-20T07:42:33;9.90;99.90
75442;DHT22;64019;48.312;14.226;2023-03-20T07:44:59;9.90;99.90
75442;DHT22;64019;48.312;14.226;2023-03-20T07:47:25;9.90;99.90
75442;DHT22;64019;48.312;14.226;2023-03-20T07:49:50;9.90;99.90
75442;DHT22;64019;48.312;14.226;2023-03-20T07:52:16;9.90;99.90
75442;DHT22;64019;48.312;14.226;2023-03-20T07:54:42;9.90;99.90
75442;DHT22;64019;48.312;14.226;2023-03-20T07:57:07;10.00;99.90
75442;DHT22;64019;48.312;14.226;2023-03-20T07:59:33;10.10;99.90
75442;DHT22;64019;48.312;14.226;2023-03-20T08:01:59;10.10;99.90
75442;DHT22;64019;48.312;14.226;2023-03-20T08:04:25;10.30;99.90
75442;DHT22;64019;48.312;14.226;2023-03-20T08:06:50;10.40;99.90
75442;DHT22;64019;48.312;14.226;2023-03-20T08:09:16;10.60;99.90
75442;DHT22;64019;48.312;14.226;2023-03-20T08:11:42;10.70;99.90
75442;DHT22;64019;48.312;14.226;2023-03-20T08:14:08;10.80;99.90
75442;DHT22;64019;48.312;14.226;2023-03-20T08:16:34;10.80;99.90
75442;DHT22;64019;48.312;14.226;2023-03-20T08:19:00;10.80;99.90
75442;DHT22;64019;48.312;14.226;2023-03-20T08:21:29;10.80;99.90
75442;DHT22;64019;48.312;14.226;2023-03-20T08:23:56;10.80;99.90
75442;DHT22;64019;48.312;14.226;2023-03-20T08:26:22;10.80;99.90
75442;DHT22;64019;48.312;14.226;2023-03-20T08:28:48;10.70;99.90
75442;DHT22;64019;48.312;14.226;2023-03-20T08:31:15;10.70;99.90
75442;DHT22;64019;48.312;14.226;2023-03-20T08:33:45;10.80;99.90
75442;DHT22;64019;48.312;14.226;2023-03-20T08:36:10;11.00;99.90
75442;DHT22;64019;48.312;14.226;2023-03-20T08:38:36;11.10;99.90
75442;DHT22;64019;48.312;14.226;2023-03-20T08:41:02;11.20;99.90
75442;DHT22;64019;48.312;14.226;2023-03-20T08:43:28;11.10;99.90
75442;DHT22;64019;48.312;14.226;2023-03-20T08:45:54;11.00;99.90
75442;DHT22;64019;48.312;14.226;2023-03-20T08:48:19;10.90;99.90
75442;DHT22;64019;48.312;14.226;2023-03-20T08:50:45;10.90;99.90
75442;DHT22;64019;48.312;14.226;2023-03-20T08:53:11;10.90;99.90
75442;DHT22;64019;48.312;14.226;2023-03-20T08:55:37;10.80;99.90
75442;DHT22;64019;48.312;14.226;2023-03-20T08:58:02;10.90;99.90
75442;DHT22;64019;48.312;14.226;2023-03-20T09:00:28;10.90;99.90
75442;DHT22;64019;48.312;14.226;2023-03-20T09:02:54;11.00;99.90
75442;DHT22;64019;48.312;14.226;2023-03-20T09:05:19;11.00;99.90
75442;DHT22;64019;48.312;14.226;2023-03-20T09:07:45;11.00;99.90
75442;DHT22;64019;48.312;14.226;2023-03-20T09:10:11;11.10;99.90
75442;DHT22;64019;48.312;14.226;2023-03-20T09:12:37;11.20;99.90
75442;DHT22;64019;48.312;14.226;2023-03-20T09:15:04;11.30;99.90
75442;DHT22;64019;48.312;14.226;2023-03-20T09:17:30;11.60;99.90
75442;DHT22;64019;48.312;14.226;2023-03-20T09:19:56;11.80;99.90
75442;DHT22;64019;48.312;14.226;2023-03-20T09:22:22;12.00;99.90
75442;DHT22;64019;48.312;14.226;2023-03-20T09:24:47;12.20;99.90
75442;DHT22;64019;48.312;14.226;2023-03-20T09:27:13;12.20;99.90
75442;DHT22;64019;48.312;14.226;2023-03-20T09:29:40;12.20;99.90
75442;DHT22;64019;48.312;14.226;2023-03-20T09:32:06;12.30;99.90
75442;DHT22;64019;48.312;14.226;2023-03-20T09:34:32;12.20;99.90
75442;DHT22;64019;48.312;14.226;2023-03-20T09:36:58;12.00;99.90
75442;DHT22;64019;48.312;14.226;2023-03-20T09:39:23;12.00;99.90
75442;DHT22;64019;48.312;14.226;2023-03-20T09:41:50;12.00;99.90
75442;DHT22;64019;48.312;14.226;2023-03-20T09:49:39;11.80;99.90
75442;DHT22;64019;48.312;14.226;2023-03-20T09:52:29;11.80;99.90
75442;DHT22;64019;48.312;14.226;2023-03-20T09:55:00;11.90;99.90
75442;DHT22;64019;48.312;14.226;2023-03-20T09:57:40;11.90;99.90
75442;DHT22;64019;48.312;14.226;2023-03-20T10:05:28;12.10;99.90
75442;DHT22;64019;48.312;14.226;2023-03-20T10:07:55;12.10;99.90
75442;DHT22;64019;48.312;14.226;2023-03-20T10:18:36;12.40;99.90
75442;DHT22;64019;48.312;14.226;2023-03-20T10:21:16;12.40;99.90
75442;DHT22;64019;48.312;14.226;2023-03-20T10:23:56;12.40;99.90
75442;DHT22;64019;48.312;14.226;2023-03-20T10:26:26;12.30;99.90
75442;DHT22;64019;48.312;14.226;2023-03-20T10:29:00;12.20;99.90
75442;DHT22;64019;48.312;14.226;2023-03-20T10:31:50;12.10;99.90
75442;DHT22;64019;48.312;14.226;2023-03-20T10:40:12;12.10;99.90
75442;DHT22;64019;48.312;14.226;2023-03-20T10:42:39;12.30;99.90
75442;DHT22;64019;48.312;14.226;2023-03-20T10:47:48;12.70;99.90
75442;DHT22;64019;48.312;14.226;2023-03-20T10:50:25;12.90;99.90
75442;DHT22;64019;48.312;14.226;2023-03-20T10:52:53;13.00;99.90
75442;DHT22;64019;48.312;14.226;2023-03-20T10:55:24;13.00;99.90
75442;DHT22;64019;48.312;14.226;2023-03-20T10:57:58;13.00;99.90
75442;DHT22;64019;48.312;14.226;2023-03-20T11:00:26;13.00;99.90
75442;DHT22;64019;48.312;14.226;2023-03-20T11:02:52;13.00;99.90
75442;DHT22;64019;48.312;14.226;2023-03-20T11:08:06;13.10;99.90
75442;DHT22;64019;48.312;14.226;2023-03-20T11:10:35;13.10;99.90
75442;DHT22;64019;48.312;14.226;2023-03-20T11:13:33;13.20;99.90
75442;DHT22;64019;48.312;14.226;2023-03-20T11:16:28;13.10;99.90
75442;DHT22;64019;48.312;14.226;2023-03-20T11:18:55;13.10;99.90
75442;DHT22;64019;48.312;14.226;2023-03-20T11:21:26;13.10;99.90
75442;DHT22;64019;48.312;14.226;2023-03-20T11:23:53;13.20;99.90
75442;DHT22;64019;48.312;14.226;2023-03-20T11:28:58;13.20;99.90
75442;DHT22;64019;48.312;14.226;2023-03-20T11:31:36;13.10;99.90
75442;DHT22;64019;48.312;14.226;2023-03-20T11:36:35;13.10;99.90
75442;DHT22;64019;48.312;14.226;2023-03-20T11:39:25;13.10;99.90
75442;DHT22;64019;48.312;14.226;2023-03-20T11:41:56;13.10;99.90
75442;DHT22;64019;48.312;14.226;2023-03-20T11:46:56;13.10;99.90
75442;DHT22;64019;48.312;14.226;2023-03-20T11:49:24;13.00;99.90
75442;DHT22;64019;48.312;14.226;2023-03-20T11:51:51;12.90;99.90
75442;DHT22;64019;48.312;14.226;2023-03-20T11:54:20;13.00;99.90
75442;DHT22;64019;48.312;14.226;2023-03-20T11:56:58;13.10;99.90
75442;DHT22;64019;48.312;14.226;2023-03-20T11:59:32;13.10;99.90
75442;DHT22;64019;48.312;14.226;2023-03-20T12:02:02;13.10;99.90
75442;DHT22;64019;48.312;14.226;2023-03-20T12:04:34;13.10;99.90
75442;DHT22;64019;48.312;14.226;2023-03-20T12:18:12;12.70;99.90
75442;DHT22;64019;48.312;14.226;2023-03-20T12:21:01;12.70;99.90
75442;DHT22;64019;48.312;14.226;2023-03-20T12:34:00;12.70;99.90
75442;DHT22;64019;48.312;14.226;2023-03-20T12:38:54;12.70;99.90
75442;DHT22;64019;48.312;14.226;2023-03-20T12:41:29;12.80;99.90
75442;DHT22;64019;48.312;14.226;2023-03-20T12:44:28;12.90;99.90
75442;DHT22;64019;48.312;14.226;2023-03-20T12:52:32;13.20;99.90
75442;DHT22;64019;48.312;14.226;2023-03-20T13:12:21;13.20;99.90
75442;DHT22;64019;48.312;14.226;2023-03-20T13:20:20;13.50;99.90
75442;DHT22;64019;48.312;14.226;2023-03-20T13:28:00;13.50;99.90
75442;DHT22;64019;48.312;14.226;2023-03-20T13:30:51;13.50;99.90
75442;DHT22;64019;48.312;14.226;2023-03-20T13:33:48;13.60;99.90
75442;DHT22;64019;48.312;14.226;2023-03-20T13:36:41;13.70;99.90
75442;DHT22;64019;48.312;14.226;2023-03-20T13:39:21;13.80;99.90
75442;DHT22;64019;48.312;14.226;2023-03-20T13:41:49;13.90;99.90
75442;DHT22;64019;48.312;14.226;2023-03-20T13:44:17;13.70;99.90
75442;DHT22;64019;48.312;14.226;2023-03-20T13:46:52;13.70;99.90
75442;DHT22;64019;48.312;14.226;2023-03-20T13:49:38;13.80;99.90
75442;DHT22;64019;48.312;14.226;2023-03-20T13:52:15;13.70;99.90
75442;DHT22;64019;48.312;14.226;2023-03-20T13:54:57;13.80;99.90
75442;DHT22;64019;48.312;14.226;2023-03-20T13:57:44;13.80;99.90
75442;DHT22;64019;48.312;14.226;2023-03-20T14:00:27;13.80;99.90
75442;DHT22;64019;48.312;14.226;2023-03-20T14:05:29;13.90;99.90
75442;DHT22;64019;48.312;14.226;2023-03-20T14:10:45;13.90;99.90
75442;DHT22;64019;48.312;14.226;2023-03-20T14:13:14;13.80;99.90
75442;DHT22;64019;48.312;14.226;2023-03-20T14:15:57;13.80;99.90
75442;DHT22;64019;48.312;14.226;2023-03-20T14:18:25;13.70;99.90
75442;DHT22;64019;48.312;14.226;2023-03-20T14:21:00;13.70;99.90
75442;DHT22;64019;48.312;14.226;2023-03-20T14:23:37;13.70;99.90
75442;DHT22;64019;48.312;14.226;2023-03-20T14:26:09;13.70;99.90
75442;DHT22;64019;48.312;14.226;2023-03-20T14:28:52;13.70;99.90
75442;DHT22;64019;48.312;14.226;2023-03-20T14:31:27;13.70;99.90
75442;DHT22;64019;48.312;14.226;2023-03-20T14:34:07;13.70;99.90
75442;DHT22;64019;48.312;14.226;2023-03-20T14:36:58;13.70;99.90
75442;DHT22;64019;48.312;14.226;2023-03-20T14:39:47;13.60;99.90
75442;DHT22;64019;48.312;14.226;2023-03-20T14:51:21;13.40;99.90
75442;DHT22;64019;48.312;14.226;2023-03-20T14:53:24;13.30;99.90
75442;DHT22;64019;48.312;14.226;2023-03-20T15:01:27;13.20;99.90
75442;DHT22;64019;48.312;14.226;2023-03-20T15:04:04;13.00;99.90
75442;DHT22;64019;48.312;14.226;2023-03-20T15:06:32;13.00;99.90
75442;DHT22;64019;48.312;14.226;2023-03-20T15:09:06;12.90;99.90
75442;DHT22;64019;48.312;14.226;2023-03-20T15:11:33;12.90;99.90
75442;DHT22;64019;48.312;14.226;2023-03-20T15:14:00;12.90;99.90
75442;DHT22;64019;48.312;14.226;2023-03-20T15:16:30;12.90;99.90
75442;DHT22;64019;48.312;14.226;2023-03-20T15:18:56;13.00;99.90
75442;DHT22;64019;48.312;14.226;2023-03-20T15:21:37;13.00;99.90
75442;DHT22;64019;48.312;14.226;2023-03-20T15:24:03;13.10;99.90
75442;DHT22;64019;48.312;14.226;2023-03-20T15:26:32;13.20;99.90
75442;DHT22;64019;48.312;14.226;2023-03-20T15:29:04;13.20;99.90
75442;DHT22;64019;48.312;14.226;2023-03-20T15:31:35;13.30;99.90
75442;DHT22;64019;48.312;14.226;2023-03-20T15:34:05;13.40;99.90
75442;DHT22;64019;48.312;14.226;2023-03-20T15:36:33;13.50;99.90
75442;DHT22;64019;48.312;14.226;2023-03-20T15:39:21;13.50;99.90
75442;DHT22;64019;48.312;14.226;2023-03-20T15:41:53;13.40;99.90
75442;DHT22;64019;48.312;14.226;2023-03-20T15:44:33;13.20;99.90
75442;DHT22;64019;48.312;14.226;2023-03-20T15:49:37;13.00;99.90
75442;DHT22;64019;48.312;14.226;2023-03-20T15:52:41;12.90;99.90
75442;DHT22;64019;48.312;14.226;2023-03-20T15:55:15;12.80;99.90
75442;DHT22;64019;48.312;14.226;2023-03-20T15:57:43;12.80;99.90
75442;DHT22;64019;48.312;14.226;2023-03-20T16:00:16;12.80;99.90
75442;DHT22;64019;48.312;14.226;2023-03-20T16:02:45;12.70;99.90
75442;DHT22;64019;48.312;14.226;2023-03-20T16:05:13;12.60;99.90
75442;DHT22;64019;48.312;14.226;2023-03-20T16:07:39;12.50;99.90
75442;DHT22;64019;48.312;14.226;2023-03-20T16:10:20;12.50;99.90
75442;DHT22;64019;48.312;14.226;2023-03-20T16:12:50;12.40;99.90
75442;DHT22;64019;48.312;14.226;2023-03-20T16:15:19;12.40;99.90
75442;DHT22;64019;48.312;14.226;2023-03-20T16:17:56;12.40;99.90
75442;DHT22;64019;48.312;14.226;2023-03-20T16:20:23;12.30;99.90
75442;DHT22;64019;48.312;14.226;2023-03-20T16:22:52;12.30;99.90
75442;DHT22;64019;48.312;14.226;2023-03-20T16:25:19;12.20;99.90
75442;DHT22;64019;48.312;14.226;2023-03-20T16:27:48;12.20;99.90
75442;DHT22;64019;48.312;14.226;2023-03-20T16:30:24;12.10;99.90
75442;DHT22;64019;48.312;14.226;2023-03-20T16:32:59;12.10;99.90
75442;DHT22;64019;48.312;14.226;2023-03-20T16:35:29;12.10;99.90
75442;DHT22;64019;48.312;14.226;2023-03-20T16:37:57;12.10;99.90
75442;DHT22;64019;48.312;14.226;2023-03-20T16:40:28;12.10;99.90
75442;DHT22;64019;48.312;14.226;2023-03-20T16:43:02;12.00;99.90
75442;DHT22;64019;48.312;14.226;2023-03-20T16:45:31;12.00;99.90
75442;DHT22;64019;48.312;14.226;2023-03-20T16:48:33;12.00;99.90
75442;DHT22;64019;48.312;14.226;2023-03-20T16:51:25;11.90;99.90
75442;DHT22;64019;48.312;14.226;2023-03-20T16:53:57;11.90;99.90
75442;DHT22;64019;48.312;14.226;2023-03-20T16:56:27;11.90;99.90
75442;DHT22;64019;48.312;14.226;2023-03-20T16:58:53;11.90;99.90
75442;DHT22;64019;48.312;14.226;2023-03-20T17:01:21;11.90;99.90
75442;DHT22;64019;48.312;14.226;2023-03-20T17:08:54;11.80;99.90
75442;DHT22;64019;48.312;14.226;2023-03-20T17:11:35;11.80;99.90
75442;DHT22;64019;48.312;14.226;2023-03-20T17:14:02;11.80;99.90
75442;DHT22;64019;48.312;14.226;2023-03-20T17:16:29;11.80;99.90
75442;DHT22;64019;48.312;14.226;2023-03-20T17:19:05;11.70;99.90
75442;DHT22;64019;48.312;14.226;2023-03-20T17:21:32;11.70;99.90
75442;DHT22;64019;48.312;14.226;2023-03-20T17:23:58;11.60;99.90
75442;DHT22;64019;48.312;14.226;2023-03-20T17:26:24;11.60;99.90
75442;DHT22;64019;48.312;14.226;2023-03-20T17:28:50;11.60;99.90
75442;DHT22;64019;48.312;14.226;2023-03-20T17:31:17;11.60;99.90
75442;DHT22;64019;48.312;14.226;2023-03-20T17:33:44;11.60;99.90
75442;DHT22;64019;48.312;14.226;2023-03-20T17:38:41;11.50;99.90
75442;DHT22;64019;48.312;14.226;2023-03-20T17:41:12;11.50;99.90
75442;DHT22;64019;48.312;14.226;2023-03-20T17:43:38;11.50;99.90
75442;DHT22;64019;48.312;14.226;2023-03-20T17:46:03;11.50;99.90
75442;DHT22;64019;48.312;14.226;2023-03-20T17:48:29;11.40;99.90
75442;DHT22;64019;48.312;14.226;2023-03-20T17:50:55;11.40;99.90
75442;DHT22;64019;48.312;14.226;2023-03-20T17:53:23;11.30;99.90
75442;DHT22;64019;48.312;14.226;2023-03-20T17:55:52;11.30;99.90
75442;DHT22;64019;48.312;14.226;2023-03-20T17:58:20;11.10;99.90
75442;DHT22;64019;48.312;14.226;2023-03-20T18:00:50;11.00;99.90
75442;DHT22;64019;48.312;14.226;2023-03-20T18:03:16;10.80;99.90
75442;DHT22;64019;48.312;14.226;2023-03-20T18:05:49;10.70;99.90
75442;DHT22;64019;48.312;14.226;2023-03-20T18:08:18;10.50;99.90
75442;DHT22;64019;48.312;14.226;2023-03-20T18:10:49;10.40;99.90
75442;DHT22;64019;48.312;14.226;2023-03-20T18:13:16;10.30;99.90
75442;DHT22;64019;48.312;14.226;2023-03-20T18:15:49;10.20;99.90
75442;DHT22;64019;48.312;14.226;2023-03-20T18:18:16;10.20;99.90
75442;DHT22;64019;48.312;14.226;2023-03-20T18:20:42;10.20;99.90
75442;DHT22;64019;48.312;14.226;2023-03-20T18:23:08;10.00;99.90